Weather History for Dumas, TX

Change the Weather History Date:

Sunday, December 9, 2012

  Actual Average (KBGD) Record (KBGD)
Temperature  
Mean Temperature 30 °F 39 °F  
Max Temperature 39 °F 51 °F 79 °F (1996)
Min Temperature 19 °F 28 °F -1 °F (1978)
Degree Days  
Heating Degree Days 35 26  
Month to date heating degree days 219  
Since 1 July heating degree days 936  
Cooling Degree Days 0 0  
Month to date cooling degree days 0  
Year to date cooling degree days 1839  
Moisture  
Dew Point 14 °F    
Average Humidity 54    
Maximum Humidity 93    
Minimum Humidity 34    
Precipitation  
Precipitation 0.00 in 0.01 in 0.19 in (2007)
Month to date precipitation 0.16  
Year to date precipitation 21.11  
Snow  
Snow 0.00 in - - ()
Month to date snowfall  
Since 1 July snowfall  
Snow Depth -    
Sea Level Pressure  
Sea Level Pressure 30.03 in    
Wind  
Wind Speed 21 mph (North)    
Max Wind Speed 31 mph    
Max Gust Speed 40 mph    
Visibility 10 miles    
Events      
T = Trace of Precipitation, MM = Missing Value Source: NWS Daily Summary

Daily Weather History Graph

Daily Weather History Graph

Search for Another Location

Airport:

Trip Planner

Search our weather history database for the weather conditions in past years. The results will help you decide how hot, cold, wet, or windy it might be!

Date:

Astronomy

Dec. 09, 2012 Rise Set
Actual Time 7:47 AM CST 5:34 PM CST
Civil Twilight 7:18 AM CST 6:02 PM CST
Nautical Twilight 6:46 AM CST 6:34 PM CST
Astronomical Twilight 6:15 AM CST 7:05 PM CST
Moon 3:28 AM CST (12/9) 2:37 PM CST (12/9)
Length of Visible Light 10h 44m
Length of Day
9h 47m
Waning Crescent, 18% of the Moon is Illuminated
Dec 9
Waning Crescent
Dec 13
New
Dec 19
First Quarter
Dec 28
Full
Jan 4
Last Quarter

Hourly Weather History & Observations

Time (CST) Temp. Windchill Dew Point Humidity Pressure Visibility Wind Dir Wind Speed Gust Speed Precip Events Conditions
12:15 AM 39.2 °F 29.8 °F 19.4 °F 45% 29.75 in 10.0 mi NW 18.4 mph 26.5 mph N/A   Clear
12:35 AM 37.4 °F 27.5 °F 21.2 °F 52% 29.77 in 10.0 mi NNW 18.4 mph 24.2 mph N/A   Clear
12:55 AM 33.8 °F 21.9 °F 32.0 °F 93% 29.79 in 5.0 mi North 21.9 mph - N/A   Mostly Cloudy
1:15 AM 33.8 °F 22.2 °F 32.0 °F 93% 29.80 in 7.0 mi North 20.7 mph 26.5 mph N/A   Overcast
1:35 AM 35.6 °F 23.4 °F 32.0 °F 87% 29.82 in 7.0 mi North 25.3 mph 29.9 mph N/A   Overcast
1:55 AM 35.6 °F 24.5 °F 32.0 °F 87% 29.82 in 7.0 mi North 20.7 mph 28.8 mph N/A   Mostly Cloudy
2:15 AM 35.6 °F 22.5 °F 32.0 °F 87% 29.83 in 7.0 mi North 29.9 mph 36.8 mph N/A   Mostly Cloudy
2:35 AM 33.8 °F 21.3 °F 32.0 °F 93% 29.84 in 5.0 mi North 24.2 mph 35.7 mph N/A   Overcast
2:55 AM 33.8 °F 19.9 °F 32.0 °F 93% 29.85 in 7.0 mi North 31.1 mph 39.1 mph N/A   Mostly Cloudy
3:15 AM 33.8 °F 20.5 °F 26.6 °F 75% 29.87 in 10.0 mi North 27.6 mph 33.4 mph N/A   Scattered Clouds
3:35 AM 32.0 °F 19.2 °F 23.0 °F 69% 29.88 in 10.0 mi North 23.0 mph 32.2 mph N/A   Clear
3:55 AM 32.0 °F 19.8 °F 21.2 °F 64% 29.89 in 10.0 mi North 20.7 mph 29.9 mph N/A   Clear
4:15 AM 32.0 °F 19.8 °F 21.2 °F 64% 29.90 in 10.0 mi North 20.7 mph 26.5 mph N/A   Clear
4:35 AM 30.2 °F 18.1 °F 19.4 °F 64% 29.90 in 10.0 mi North 18.4 mph 25.3 mph N/A   Clear
4:55 AM 30.2 °F 17.4 °F 19.4 °F 64% 29.91 in 10.0 mi North 20.7 mph 25.3 mph N/A   Clear
5:15 AM 30.2 °F 18.1 °F 19.4 °F 64% 29.91 in 10.0 mi North 18.4 mph - N/A   Clear
5:35 AM 30.2 °F 18.1 °F 17.6 °F 60% 29.93 in 10.0 mi North 18.4 mph - N/A   Clear
5:55 AM 28.4 °F 16.6 °F 17.6 °F 64% 29.93 in 10.0 mi North 16.1 mph - N/A   Clear
6:15 AM 28.4 °F 17.0 °F 17.6 °F 64% 29.94 in 10.0 mi North 15.0 mph - N/A   Clear
6:35 AM 28.4 °F 16.6 °F 17.6 °F 64% 29.95 in 10.0 mi North 16.1 mph 20.7 mph N/A   Clear
6:55 AM 28.4 °F 17.5 °F 17.6 °F 64% 29.96 in 10.0 mi North 13.8 mph - N/A   Clear
7:15 AM 26.6 °F 15.2 °F 17.6 °F 69% 29.97 in 10.0 mi North 13.8 mph - N/A   Clear
7:35 AM 26.6 °F 15.2 °F 17.6 °F 69% 29.98 in 10.0 mi NNW 13.8 mph - N/A   Clear
7:55 AM 26.6 °F 15.7 °F 17.6 °F 69% 29.99 in 10.0 mi NNW 12.7 mph - N/A   Scattered Clouds
8:15 AM 26.6 °F 15.2 °F 17.6 °F 69% 30.00 in 10.0 mi NNW 13.8 mph - N/A   Mostly Cloudy
8:35 AM 26.6 °F 14.7 °F 17.6 °F 69% 30.01 in 10.0 mi NNW 15.0 mph - N/A   Overcast
8:55 AM 28.4 °F 17.0 °F 17.6 °F 64% 30.02 in 10.0 mi North 15.0 mph - N/A   Overcast
9:15 AM 30.2 °F 18.1 °F 15.8 °F 55% 30.03 in 10.0 mi North 18.4 mph 23.0 mph N/A   Overcast
9:35 AM 30.2 °F 17.4 °F 15.8 °F 55% 30.05 in 10.0 mi North 20.7 mph 28.8 mph N/A   Overcast
9:55 AM 32.0 °F 18.9 °F 14.0 °F 48% 30.05 in 10.0 mi North 24.2 mph 29.9 mph N/A   Overcast
10:15 AM 32.0 °F 19.5 °F 12.2 °F 44% 30.06 in 10.0 mi North 21.9 mph 32.2 mph N/A   Mostly Cloudy
10:35 AM 32.0 °F 19.5 °F 12.2 °F 44% 30.07 in 10.0 mi North 21.9 mph 33.4 mph N/A   Overcast
10:55 AM 32.0 °F 19.8 °F 12.2 °F 44% 30.07 in 10.0 mi North 20.7 mph 31.1 mph N/A   Overcast
11:15 AM 32.0 °F 18.6 °F 12.2 °F 44% 30.07 in 10.0 mi North 25.3 mph 32.2 mph N/A   Mostly Cloudy
11:35 AM 33.8 °F 22.2 °F 12.2 °F 41% 30.07 in 10.0 mi North 20.7 mph 32.2 mph N/A   Mostly Cloudy
11:55 AM 33.8 °F 21.9 °F 12.2 °F 41% 30.06 in 10.0 mi North 21.9 mph 27.6 mph N/A   Mostly Cloudy
12:15 PM 32.0 °F 20.1 °F 10.4 °F 41% 30.07 in 10.0 mi North 19.6 mph 34.5 mph N/A   Overcast
12:35 PM 32.0 °F 20.5 °F 12.2 °F 44% 30.06 in 10.0 mi North 18.4 mph - N/A   Mostly Cloudy
12:55 PM 32.0 °F 19.2 °F 12.2 °F 44% 30.06 in 10.0 mi North 23.0 mph 32.2 mph N/A   Mostly Cloudy
1:15 PM 32.0 °F 18.1 °F 14.0 °F 48% 30.05 in 10.0 mi North 27.6 mph 34.5 mph N/A   Mostly Cloudy
1:35 PM 32.0 °F 19.2 °F 14.0 °F 48% 30.05 in 10.0 mi North 23.0 mph 32.2 mph N/A   Mostly Cloudy
1:55 PM 32.0 °F 18.9 °F 12.2 °F 44% 30.05 in 10.0 mi North 24.2 mph 34.5 mph N/A   Overcast
2:15 PM 32.0 °F 18.6 °F 12.2 °F 44% 30.05 in 10.0 mi North 25.3 mph 34.5 mph N/A   Overcast
2:35 PM 32.0 °F 18.4 °F 12.2 °F 44% 30.05 in 10.0 mi North 26.5 mph 35.7 mph N/A   Mostly Cloudy
2:55 PM 30.2 °F 16.5 °F 12.2 °F 47% 30.04 in 10.0 mi North 24.2 mph 34.5 mph N/A   Scattered Clouds
3:15 PM 30.2 °F 15.2 °F 10.4 °F 44% 30.04 in 10.0 mi North 29.9 mph 34.5 mph N/A   Scattered Clouds
3:35 PM 30.2 °F 15.7 °F 10.4 °F 44% 30.05 in 10.0 mi North 27.6 mph 33.4 mph N/A   Scattered Clouds
4:15 PM 30.2 °F 16.5 °F 5.0 °F 34% 30.05 in 10.0 mi North 24.2 mph 31.1 mph N/A   Mostly Cloudy
4:35 PM 30.2 °F 16.8 °F 5.0 °F 34% 30.06 in 10.0 mi North 23.0 mph 31.1 mph N/A   Mostly Cloudy
4:55 PM 28.4 °F 14.1 °F 5.0 °F 37% 30.07 in 10.0 mi North 24.2 mph 29.9 mph N/A   Overcast
5:15 PM 28.4 °F 15.1 °F 6.8 °F 40% 30.09 in 10.0 mi North 20.7 mph 28.8 mph N/A   Overcast
5:35 PM 28.4 °F 14.7 °F 5.0 °F 37% 30.10 in 10.0 mi North 21.9 mph 32.2 mph N/A   Scattered Clouds
5:55 PM 28.4 °F 14.7 °F 5.0 °F 37% 30.11 in 10.0 mi North 21.9 mph 27.6 mph N/A   Clear
6:15 PM 28.4 °F 14.4 °F 5.0 °F 37% 30.12 in 10.0 mi North 23.0 mph 28.8 mph N/A   Clear
6:35 PM 28.4 °F 13.8 °F 3.2 °F 34% 30.14 in 10.0 mi North 25.3 mph 36.8 mph N/A   Clear
6:55 PM 28.4 °F 14.1 °F 3.2 °F 34% 30.16 in 10.0 mi North 24.2 mph 36.8 mph N/A   Clear
7:15 PM 26.6 °F 10.3 °F 3.2 °F 37% 30.17 in 10.0 mi North 29.9 mph 35.7 mph N/A   Clear
7:35 PM 26.6 °F 11.1 °F 8.6 °F 47% 30.18 in 7.0 mi North 26.5 mph 40.3 mph N/A   Mostly Cloudy
7:55 PM 26.6 °F 11.7 °F 8.6 °F 47% 30.18 in 10.0 mi North 24.2 mph 34.5 mph N/A   Mostly Cloudy
8:15 PM 26.6 °F 10.6 °F 6.8 °F 43% 30.19 in 10.0 mi North 28.8 mph 36.8 mph N/A   Mostly Cloudy
8:35 PM 26.6 °F 11.7 °F 5.0 °F 40% 30.19 in 10.0 mi North 24.2 mph 29.9 mph N/A   Scattered Clouds
8:55 PM 26.6 °F 11.7 °F 3.2 °F 37% 30.18 in 10.0 mi North 24.2 mph 32.2 mph N/A   Clear
9:15 PM 26.6 °F 12.4 °F 3.2 °F 37% 30.18 in 10.0 mi North 21.9 mph 31.1 mph N/A   Clear
9:35 PM 23.0 °F 8.3 °F 3.2 °F 43% 30.18 in 10.0 mi North 19.6 mph 26.5 mph N/A   Clear
9:55 PM 23.0 °F 8.3 °F 3.2 °F 43% 30.20 in 10.0 mi North 19.6 mph 23.0 mph N/A   Clear
10:15 PM 23.0 °F 9.2 °F 3.2 °F 43% 30.19 in 10.0 mi North 17.3 mph 26.5 mph N/A   Clear
10:35 PM 21.2 °F 7.3 °F 3.2 °F 46% 30.20 in 10.0 mi North 16.1 mph 21.9 mph N/A   Clear
10:55 PM 21.2 °F 6.8 °F 3.2 °F 46% 30.21 in 10.0 mi North 17.3 mph - N/A   Clear
11:15 PM 21.2 °F 6.4 °F 1.4 °F 42% 30.21 in 10.0 mi North 18.4 mph - N/A   Clear
11:35 PM 19.4 °F 6.0 °F 1.4 °F 46% 30.20 in 10.0 mi North 13.8 mph - N/A   Clear